createdAt,value
2022-12-29T00:00:48.995Z,22.92
2022-12-29T00:03:13.532Z,22.88
2022-12-29T00:05:38.354Z,23.98
2022-12-29T00:08:02.757Z,21.92
2022-12-29T00:10:28.499Z,22.23
2022-12-29T00:13:10.544Z,21.85
2022-12-29T00:15:45.395Z,23.40
2022-12-29T00:18:10.586Z,24.17
2022-12-29T00:20:54.296Z,22.40
2022-12-29T00:23:36.176Z,20.88
2022-12-29T00:26:22.773Z,21.58
2022-12-29T00:29:04.766Z,25.35
2022-12-29T00:31:46.675Z,24.48
2022-12-29T00:34:30.944Z,24.98
2022-12-29T00:36:55.517Z,21.83
2022-12-29T00:39:38.616Z,23.00
2022-12-29T00:42:36.421Z,21.58
2022-12-29T00:45:01.911Z,22.23
2022-12-29T00:47:28.921Z,22.67
2022-12-29T00:49:52.424Z,22.60
2022-12-29T00:52:16.967Z,21.00
2022-12-29T00:54:45.888Z,24.90
2022-12-29T00:57:13.243Z,27.70
2022-12-29T00:59:37.923Z,32.58
2022-12-29T01:02:02.408Z,29.50
2022-12-29T01:04:28.403Z,31.08
2022-12-29T01:06:53.389Z,33.47
2022-12-29T01:09:35.961Z,29.40
2022-12-29T01:12:00.943Z,29.80
2022-12-29T01:14:27.714Z,32.15
2022-12-29T01:16:53.102Z,30.73
2022-12-29T01:19:18.183Z,29.70
2022-12-29T01:21:42.779Z,31.77
2022-12-29T01:24:07.891Z,32.78
2022-12-29T01:26:32.582Z,34.20
2022-12-29T01:28:57.063Z,33.95
2022-12-29T01:31:22.945Z,34.45
2022-12-29T01:33:47.499Z,35.58
2022-12-29T01:36:14.469Z,32.17
2022-12-29T01:38:40.260Z,30.83
2022-12-29T01:41:05.248Z,32.88
2022-12-29T01:43:42.556Z,34.13
2022-12-29T01:46:10.330Z,32.95
2022-12-29T01:48:36.509Z,33.92
2022-12-29T01:51:01.022Z,35.35
2022-12-29T01:53:30.196Z,33.00
2022-12-29T01:55:57.852Z,34.38
2022-12-29T01:58:26.469Z,33.28
2022-12-29T02:00:51.239Z,33.53
2022-12-29T02:03:16.524Z,34.97
2022-12-29T02:05:50.061Z,33.15
2022-12-29T02:08:15.416Z,30.63
2022-12-29T02:10:41.494Z,31.63
2022-12-29T02:13:05.961Z,33.35
2022-12-29T02:15:59.404Z,32.15
2022-12-29T02:18:35.062Z,33.28
2022-12-29T02:21:43.485Z,34.75
2022-12-29T02:24:58.419Z,34.78
2022-12-29T02:27:47.998Z,33.75
2022-12-29T02:30:27.007Z,34.53
2022-12-29T02:33:00.983Z,35.58
2022-12-29T02:35:33.145Z,36.15
2022-12-29T02:38:06.267Z,35.75
2022-12-29T02:40:38.126Z,35.83
2022-12-29T02:43:09.990Z,36.53
2022-12-29T02:45:43.809Z,37.47
2022-12-29T02:48:16.167Z,34.92
2022-12-29T02:50:51.226Z,39.10
2022-12-29T02:53:18.087Z,36.65
2022-12-29T02:55:48.559Z,36.58
2022-12-29T02:58:20.553Z,38.05
2022-12-29T03:00:57.391Z,37.33
2022-12-29T03:03:35.306Z,37.63
2022-12-29T03:06:18.201Z,39.63
2022-12-29T03:08:54.646Z,36.22
2022-12-29T03:11:37.431Z,37.35
2022-12-29T03:14:24.480Z,35.47
2022-12-29T03:16:55.842Z,35.58
2022-12-29T03:19:25.771Z,36.08
2022-12-29T03:22:11.369Z,36.30
2022-12-29T03:24:43.998Z,35.90
2022-12-29T03:27:12.889Z,35.63
2022-12-29T03:29:44.243Z,36.38
2022-12-29T03:32:14.639Z,37.63
2022-12-29T03:34:40.558Z,35.83
2022-12-29T03:37:12.029Z,34.70
2022-12-29T03:39:37.090Z,37.75
2022-12-29T03:42:05.573Z,34.08
2022-12-29T03:44:35.266Z,34.83
2022-12-29T03:47:00.469Z,34.58
2022-12-29T03:49:26.415Z,35.70
2022-12-29T03:51:52.035Z,34.47
2022-12-29T03:54:17.289Z,34.10
2022-12-29T03:56:42.224Z,34.35
2022-12-29T03:59:06.926Z,36.65
2022-12-29T04:01:39.371Z,37.03
2022-12-29T04:04:05.410Z,36.88
2022-12-29T04:06:31.259Z,37.30
2022-12-29T04:09:00.355Z,36.42
2022-12-29T04:11:31.274Z,35.28
2022-12-29T04:13:58.061Z,36.80
2022-12-29T04:16:23.745Z,36.90
2022-12-29T04:18:48.749Z,35.40
2022-12-29T04:21:14.389Z,34.47
2022-12-29T04:23:42.328Z,35.63
2022-12-29T04:26:10.402Z,35.85
2022-12-29T04:28:57.628Z,33.80
2022-12-29T04:31:45.406Z,33.88
2022-12-29T04:34:10.031Z,35.15
2022-12-29T04:36:34.478Z,36.28
2022-12-29T04:39:00.773Z,34.28
2022-12-29T04:41:25.726Z,34.13
2022-12-29T04:43:51.232Z,34.90
2022-12-29T04:46:36.028Z,33.97
2022-12-29T04:49:09.713Z,34.55
2022-12-29T04:52:06.740Z,35.40
2022-12-29T04:54:34.200Z,35.20
2022-12-29T04:57:10.840Z,34.47
2022-12-29T04:59:36.864Z,35.38
2022-12-29T05:02:02.690Z,37.63
2022-12-29T05:04:27.439Z,37.00
2022-12-29T05:06:52.101Z,39.13
2022-12-29T05:09:16.459Z,37.63
2022-12-29T05:11:45.191Z,37.13
2022-12-29T05:14:09.720Z,38.50
2022-12-29T05:16:35.515Z,36.60
2022-12-29T05:19:00.902Z,38.78
2022-12-29T05:21:25.593Z,38.13
2022-12-29T05:23:50.108Z,36.65
2022-12-29T05:26:14.708Z,35.03
2022-12-29T05:29:06.748Z,34.97
2022-12-29T05:31:32.927Z,35.42
2022-12-29T05:33:58.755Z,34.35
2022-12-29T05:36:24.952Z,33.55
2022-12-29T05:41:18.904Z,32.42
2022-12-29T05:44:02.031Z,33.67
2022-12-29T05:46:51.141Z,35.60
2022-12-29T05:49:42.561Z,33.08
2022-12-29T05:52:16.672Z,33.60
2022-12-29T05:54:42.455Z,32.78
2022-12-29T05:57:11.329Z,30.77
2022-12-29T05:59:36.962Z,31.88
2022-12-29T06:02:03.958Z,33.45
2022-12-29T06:04:29.437Z,34.50
2022-12-29T06:06:55.878Z,32.85
2022-12-29T06:09:29.698Z,32.72
2022-12-29T06:11:54.671Z,34.20
2022-12-29T06:14:19.031Z,33.58
2022-12-29T06:16:44.221Z,32.75
2022-12-29T06:19:12.666Z,33.20
2022-12-29T06:21:38.725Z,33.35
2022-12-29T06:24:03.291Z,33.72
2022-12-29T06:26:27.867Z,33.53
2022-12-29T06:28:52.257Z,33.75
2022-12-29T06:31:16.735Z,35.95
2022-12-29T06:33:41.727Z,36.25
2022-12-29T06:36:08.712Z,37.58
2022-12-29T06:38:33.376Z,39.85
2022-12-29T06:40:58.537Z,38.55
2022-12-29T06:43:41.463Z,38.60
2022-12-29T06:46:17.961Z,37.03
2022-12-29T06:48:43.344Z,40.83
2022-12-29T06:51:09.065Z,38.72
2022-12-29T06:53:33.445Z,40.65
2022-12-29T06:55:58.165Z,37.88
2022-12-29T06:58:22.788Z,38.63
2022-12-29T07:00:47.268Z,39.63
2022-12-29T07:03:12.005Z,39.05
2022-12-29T07:05:36.508Z,37.00
2022-12-29T07:08:02.568Z,38.28
2022-12-29T07:10:27.152Z,38.35
2022-12-29T07:12:51.748Z,37.95
2022-12-29T07:15:16.216Z,37.38
2022-12-29T07:17:40.909Z,38.35
2022-12-29T07:20:06.244Z,36.88
2022-12-29T07:22:30.670Z,37.55
2022-12-29T07:24:56.475Z,38.15
2022-12-29T07:27:20.896Z,36.78
2022-12-29T07:29:45.308Z,35.35
2022-12-29T07:32:09.966Z,36.03
2022-12-29T07:34:34.468Z,34.60
2022-12-29T07:36:59.081Z,35.03
2022-12-29T07:39:23.383Z,34.55
2022-12-29T07:41:49.788Z,33.35
2022-12-29T07:44:18.581Z,33.63
2022-12-29T07:46:56.611Z,33.53
2022-12-29T07:49:22.233Z,31.52
2022-12-29T07:51:46.547Z,28.85
2022-12-29T07:54:13.181Z,29.80
2022-12-29T07:56:37.533Z,30.27
2022-12-29T07:59:03.406Z,29.88
2022-12-29T08:01:27.951Z,30.75
2022-12-29T08:03:57.310Z,29.98
2022-12-29T08:06:22.808Z,28.75
2022-12-29T08:08:48.652Z,27.27
2022-12-29T08:11:13.135Z,27.88
2022-12-29T08:13:37.929Z,29.27
2022-12-29T08:16:03.799Z,26.90
2022-12-29T08:18:28.567Z,28.33
2022-12-29T08:20:55.887Z,25.67
2022-12-29T08:23:20.713Z,25.27
2022-12-29T08:25:45.244Z,23.77
2022-12-29T08:28:12.250Z,24.48
2022-12-29T08:30:38.602Z,25.25
2022-12-29T08:33:04.774Z,24.38
2022-12-29T08:35:29.320Z,24.58
2022-12-29T08:37:53.955Z,21.38
2022-12-29T08:40:18.580Z,21.73
2022-12-29T08:42:43.119Z,23.13
2022-12-29T08:45:09.657Z,24.05
2022-12-29T08:47:34.634Z,23.85
2022-12-29T08:50:00.572Z,22.30
2022-12-29T08:52:34.958Z,22.02
2022-12-29T08:54:59.812Z,22.60
2022-12-29T08:57:24.263Z,22.30
2022-12-29T09:00:03.959Z,22.53
2022-12-29T09:02:37.126Z,22.17
2022-12-29T09:05:03.086Z,21.15
2022-12-29T09:07:28.003Z,19.27
2022-12-29T09:09:52.559Z,19.75
2022-12-29T09:12:17.504Z,17.38
2022-12-29T09:14:43.844Z,18.13
2022-12-29T09:17:25.656Z,17.30
2022-12-29T09:19:50.146Z,18.63
2022-12-29T09:22:16.305Z,18.92
2022-12-29T09:24:40.801Z,17.58
2022-12-29T09:27:05.263Z,17.02
2022-12-29T09:29:29.927Z,17.92
2022-12-29T09:31:54.759Z,16.02
2022-12-29T09:34:19.314Z,14.40
2022-12-29T09:36:43.673Z,17.10
2022-12-29T09:39:09.872Z,14.98
2022-12-29T09:41:42.004Z,11.80
2022-12-29T09:44:15.356Z,13.43
2022-12-29T09:46:42.699Z,14.77
2022-12-29T09:49:16.602Z,12.52
2022-12-29T09:51:44.004Z,12.32
2022-12-29T09:54:26.958Z,12.50
2022-12-29T09:56:52.104Z,12.32
2022-12-29T09:59:21.422Z,11.88
2022-12-29T10:01:53.939Z,11.25
2022-12-29T10:04:18.878Z,11.30
2022-12-29T10:07:27.890Z,12.63
2022-12-29T10:09:54.175Z,11.85
2022-12-29T10:12:29.656Z,11.20
2022-12-29T10:15:03.299Z,12.48
2022-12-29T10:17:37.365Z,11.38
2022-12-29T10:20:31.227Z,11.32
2022-12-29T10:23:08.928Z,10.25
2022-12-29T10:25:39.980Z,10.52
2022-12-29T10:28:12.912Z,10.32
2022-12-29T10:30:38.221Z,9.98
2022-12-29T10:33:06.659Z,10.50
2022-12-29T10:35:37.080Z,10.90
2022-12-29T10:38:11.799Z,9.50
2022-12-29T10:40:44.640Z,9.50
2022-12-29T10:43:22.531Z,9.57
2022-12-29T10:45:47.696Z,9.52
2022-12-29T10:48:19.625Z,10.38
2022-12-29T10:50:44.481Z,10.88
2022-12-29T10:53:09.306Z,10.18
2022-12-29T10:55:37.494Z,10.52
2022-12-29T10:58:07.245Z,11.93
2022-12-29T11:00:31.784Z,12.75
2022-12-29T11:03:21.685Z,11.23
2022-12-29T11:08:16.485Z,11.85
2022-12-29T11:10:43.828Z,12.95
2022-12-29T11:13:15.792Z,12.40
2022-12-29T11:15:42.701Z,10.75
2022-12-29T11:18:07.240Z,12.65
2022-12-29T11:20:34.609Z,10.60
2022-12-29T11:22:59.870Z,10.45
2022-12-29T11:25:24.336Z,11.10
2022-12-29T11:27:58.535Z,10.32
2022-12-29T11:30:28.380Z,10.43
2022-12-29T11:32:54.096Z,9.70
2022-12-29T11:35:32.685Z,9.07
2022-12-29T11:37:59.375Z,9.80
2022-12-29T11:40:24.298Z,8.25
2022-12-29T11:42:53.130Z,9.18
2022-12-29T11:45:20.454Z,9.70
2022-12-29T11:47:50.034Z,10.68
2022-12-29T11:50:20.746Z,11.20
2022-12-29T11:52:45.428Z,11.57
2022-12-29T11:55:20.876Z,11.45
2022-12-29T11:57:46.721Z,11.60
2022-12-29T12:00:18.690Z,12.55
2022-12-29T12:02:48.192Z,12.10
2022-12-29T12:05:34.214Z,12.73
2022-12-29T12:08:06.485Z,11.85
2022-12-29T12:10:39.585Z,12.52
2022-12-29T12:13:13.403Z,13.40
2022-12-29T12:15:46.781Z,12.55
2022-12-29T12:18:20.942Z,13.13
2022-12-29T12:20:50.567Z,12.52
2022-12-29T12:23:30.202Z,11.00
2022-12-29T12:26:01.740Z,10.70
2022-12-29T12:28:37.004Z,10.52
2022-12-29T12:31:03.587Z,11.07
2022-12-29T12:33:33.715Z,12.82
2022-12-29T12:36:16.509Z,12.05
2022-12-29T12:38:52.179Z,11.10
2022-12-29T12:41:23.108Z,10.05
2022-12-29T12:43:53.361Z,11.48
2022-12-29T12:47:02.508Z,9.77
2022-12-29T12:49:54.684Z,9.80
2022-12-29T12:52:29.063Z,9.82
2022-12-29T12:55:13.731Z,10.18
2022-12-29T12:57:51.566Z,9.55
2022-12-29T13:00:19.184Z,9.73
2022-12-29T13:02:55.922Z,9.48
2022-12-29T13:05:43.586Z,9.20
2022-12-29T13:08:38.330Z,10.05
2022-12-29T13:11:09.800Z,9.50
2022-12-29T13:13:54.909Z,9.68
2022-12-29T13:16:27.278Z,9.73
2022-12-29T13:18:59.733Z,7.57
2022-12-29T13:21:38.236Z,9.25
2022-12-29T13:24:07.551Z,8.18
2022-12-29T13:26:36.474Z,9.30
2022-12-29T13:29:13.260Z,9.07
2022-12-29T13:31:44.938Z,9.70
2022-12-29T13:34:23.478Z,10.20
2022-12-29T13:36:55.061Z,11.80
2022-12-29T13:39:24.021Z,10.15
2022-12-29T13:41:51.398Z,10.23
2022-12-29T13:44:20.393Z,9.70
2022-12-29T13:46:47.825Z,8.82
2022-12-29T13:49:18.784Z,8.52
2022-12-29T13:51:50.632Z,9.45
2022-12-29T13:54:24.380Z,10.07
2022-12-29T13:56:54.794Z,9.13
2022-12-29T13:59:26.204Z,8.43
2022-12-29T14:01:59.112Z,9.02
2022-12-29T14:04:26.337Z,9.43
2022-12-29T14:07:02.924Z,9.05
2022-12-29T14:09:44.629Z,8.15
2022-12-29T14:12:23.859Z,8.80
2022-12-29T14:14:48.662Z,9.30
2022-12-29T14:17:15.502Z,9.88
2022-12-29T14:19:43.127Z,9.95
2022-12-29T14:22:08.202Z,10.15
2022-12-29T14:24:54.588Z,10.13
2022-12-29T14:27:47.114Z,10.15
2022-12-29T14:30:44.912Z,10.40
2022-12-29T14:33:16.389Z,11.82
2022-12-29T14:35:44.172Z,12.55
2022-12-29T14:38:20.953Z,13.85
2022-12-29T14:40:47.706Z,13.15
2022-12-29T14:43:19.544Z,13.68
2022-12-29T14:45:44.992Z,13.80
2022-12-29T14:48:36.857Z,13.93
2022-12-29T14:51:01.841Z,12.25
2022-12-29T14:53:48.855Z,14.20
2022-12-29T14:56:16.168Z,13.73
2022-12-29T14:58:49.039Z,14.52
2022-12-29T15:01:22.078Z,14.27
2022-12-29T15:03:51.178Z,14.23
2022-12-29T15:06:20.291Z,15.20
2022-12-29T15:08:52.014Z,16.65
2022-12-29T15:11:20.785Z,16.08
2022-12-29T15:13:46.991Z,15.68
2022-12-29T15:16:26.460Z,15.73
2022-12-29T15:19:03.664Z,16.83
2022-12-29T15:21:31.550Z,15.60
2022-12-29T15:23:56.360Z,16.27
2022-12-29T15:26:24.840Z,17.25
2022-12-29T15:28:50.396Z,17.00
2022-12-29T15:31:16.934Z,15.90
2022-12-29T15:33:43.535Z,16.75
2022-12-29T15:36:14.918Z,16.55
2022-12-29T15:38:40.717Z,18.15
2022-12-29T15:41:08.987Z,18.58
2022-12-29T15:43:52.899Z,18.80
2022-12-29T15:46:18.385Z,19.70
2022-12-29T15:48:43.572Z,19.50
2022-12-29T15:51:19.178Z,21.30
2022-12-29T15:53:44.056Z,19.63
2022-12-29T15:56:12.550Z,20.30
2022-12-29T15:58:46.026Z,21.13
2022-12-29T16:01:20.749Z,21.25
2022-12-29T16:03:47.250Z,23.15
2022-12-29T16:06:27.317Z,24.15
2022-12-29T16:11:27.592Z,25.33
2022-12-29T16:13:55.640Z,26.23
2022-12-29T16:16:23.761Z,22.98
2022-12-29T16:18:55.101Z,23.67
2022-12-29T16:21:25.625Z,24.15
2022-12-29T16:23:52.353Z,26.27
2022-12-29T16:26:19.831Z,24.23
2022-12-29T16:28:44.943Z,23.92
2022-12-29T16:31:23.597Z,24.77
2022-12-29T16:33:50.142Z,24.73
2022-12-29T16:36:26.831Z,26.67
2022-12-29T16:38:51.267Z,25.58
2022-12-29T16:41:31.237Z,27.27
2022-12-29T16:46:36.602Z,28.00
2022-12-29T16:49:01.078Z,30.08
2022-12-29T16:51:36.542Z,29.30
2022-12-29T16:54:02.460Z,31.38
2022-12-29T16:56:30.073Z,30.77
2022-12-29T16:59:00.618Z,31.00
2022-12-29T17:01:25.520Z,29.77
2022-12-29T17:03:55.047Z,32.03
2022-12-29T17:06:21.196Z,30.48
2022-12-29T17:08:47.472Z,33.55
2022-12-29T17:11:42.779Z,34.63
2022-12-29T17:14:13.753Z,32.75
2022-12-29T17:16:38.352Z,33.55
2022-12-29T17:19:04.419Z,31.80
2022-12-29T17:21:29.197Z,33.28
2022-12-29T17:23:53.623Z,33.72
2022-12-29T17:26:18.208Z,32.58
2022-12-29T17:28:42.738Z,33.58
2022-12-29T17:31:09.207Z,35.05
2022-12-29T17:33:37.816Z,33.13
2022-12-29T17:36:04.671Z,34.97
2022-12-29T17:38:31.916Z,34.05
2022-12-29T17:40:57.672Z,36.33
2022-12-29T17:43:22.356Z,35.92
2022-12-29T17:45:50.856Z,36.78
2022-12-29T17:48:17.147Z,36.58
2022-12-29T17:50:42.113Z,37.58
2022-12-29T17:53:12.777Z,36.28
2022-12-29T17:55:38.758Z,35.90
2022-12-29T17:58:03.442Z,35.70
2022-12-29T18:00:30.866Z,35.47
2022-12-29T18:02:56.221Z,38.50
2022-12-29T18:05:22.953Z,37.53
2022-12-29T18:07:47.404Z,37.40
2022-12-29T18:10:13.377Z,38.30
2022-12-29T18:12:40.841Z,35.78
2022-12-29T18:15:06.642Z,36.22
2022-12-29T18:17:31.181Z,39.08
2022-12-29T18:19:55.900Z,38.55
2022-12-29T18:22:20.345Z,36.00
2022-12-29T18:24:45.210Z,37.42
2022-12-29T18:27:14.847Z,36.13
2022-12-29T18:29:40.492Z,35.08
2022-12-29T18:32:05.821Z,36.53
2022-12-29T18:34:30.412Z,38.13
2022-12-29T18:36:54.821Z,36.05
2022-12-29T18:39:19.328Z,38.10
2022-12-29T18:41:43.680Z,36.95
2022-12-29T18:44:13.959Z,39.22
2022-12-29T18:46:38.909Z,38.33
2022-12-29T18:49:03.391Z,39.70
2022-12-29T18:51:27.911Z,41.75
2022-12-29T18:53:54.558Z,40.47
2022-12-29T18:56:19.292Z,41.55
2022-12-29T18:58:44.616Z,43.10
2022-12-29T19:01:21.677Z,38.83
2022-12-29T19:03:46.475Z,39.92
2022-12-29T19:06:11.229Z,39.40
2022-12-29T19:08:35.733Z,39.95
2022-12-29T19:11:01.598Z,37.22
2022-12-29T19:13:29.528Z,40.08
2022-12-29T19:15:53.985Z,37.67
2022-12-29T19:21:07.130Z,41.75
2022-12-29T19:23:31.536Z,39.38
2022-12-29T19:25:56.718Z,38.40
2022-12-29T19:28:23.308Z,38.58
2022-12-29T19:30:52.641Z,41.42
2022-12-29T19:33:23.575Z,38.45
2022-12-29T19:35:48.054Z,39.35
2022-12-29T19:38:14.308Z,42.13
2022-12-29T19:40:39.139Z,39.75
2022-12-29T19:43:03.775Z,39.78
2022-12-29T19:45:29.323Z,39.83
2022-12-29T19:47:54.918Z,38.83
2022-12-29T19:50:21.134Z,39.33
2022-12-29T19:52:46.655Z,40.83
2022-12-29T19:55:13.410Z,42.35
2022-12-29T19:57:43.764Z,41.38
2022-12-29T20:00:10.239Z,41.60
2022-12-29T20:02:37.899Z,41.97
2022-12-29T20:05:02.540Z,42.65
2022-12-29T20:07:29.082Z,41.85
2022-12-29T20:09:54.032Z,43.45
2022-12-29T20:12:23.007Z,42.10
2022-12-29T20:14:50.243Z,43.90
2022-12-29T20:17:23.104Z,47.40
2022-12-29T20:20:01.129Z,44.88
2022-12-29T20:22:28.883Z,41.85
2022-12-29T20:25:05.117Z,44.08
2022-12-29T20:27:38.382Z,43.22
2022-12-29T20:30:02.784Z,42.53
2022-12-29T20:32:29.424Z,44.30
2022-12-29T20:34:56.387Z,44.47
2022-12-29T20:37:21.108Z,42.83
2022-12-29T20:39:46.953Z,45.58
2022-12-29T20:42:11.722Z,43.92
2022-12-29T20:44:36.534Z,43.78
2022-12-29T20:47:01.415Z,42.47
2022-12-29T20:49:26.696Z,40.70
2022-12-29T20:52:05.802Z,42.50
2022-12-29T20:54:35.521Z,41.90
2022-12-29T20:57:04.817Z,41.35
2022-12-29T20:59:40.157Z,40.38
2022-12-29T21:02:06.672Z,40.03
2022-12-29T21:04:50.261Z,39.25
2022-12-29T21:07:19.992Z,41.42
2022-12-29T21:09:44.852Z,40.08
2022-12-29T21:12:10.974Z,39.25
2022-12-29T21:14:40.734Z,39.00
2022-12-29T21:17:08.559Z,37.70
2022-12-29T21:19:33.170Z,40.28
2022-12-29T21:21:57.615Z,41.20
2022-12-29T21:24:22.928Z,39.08
2022-12-29T21:26:48.692Z,39.47
2022-12-29T21:29:14.685Z,40.47
2022-12-29T21:31:39.162Z,39.17
2022-12-29T21:34:05.480Z,41.08
2022-12-29T21:36:30.710Z,40.05
2022-12-29T21:38:55.835Z,41.50
2022-12-29T21:41:20.923Z,41.47
2022-12-29T21:44:07.886Z,40.97
2022-12-29T21:46:33.130Z,42.05
2022-12-29T21:48:57.551Z,41.08
2022-12-29T21:51:42.118Z,39.58
2022-12-29T21:54:20.604Z,40.20
2022-12-29T21:56:45.904Z,38.80
2022-12-29T21:59:27.886Z,39.83
2022-12-29T22:02:11.410Z,40.72
2022-12-29T22:04:53.423Z,38.97
2022-12-29T22:07:35.742Z,38.60
2022-12-29T22:10:17.520Z,37.33
2022-12-29T22:13:01.402Z,39.15
2022-12-29T22:15:27.443Z,38.60
2022-12-29T22:17:54.995Z,38.72
2022-12-29T22:20:20.355Z,37.50
2022-12-29T22:22:44.719Z,39.35
2022-12-29T22:25:10.572Z,40.20
2022-12-29T22:27:34.981Z,38.78
2022-12-29T22:29:59.610Z,38.63
2022-12-29T22:32:24.132Z,39.20
2022-12-29T22:34:50.353Z,40.63
2022-12-29T22:37:15.284Z,39.95
2022-12-29T22:39:39.680Z,40.38
2022-12-29T22:42:04.172Z,40.33
2022-12-29T22:44:29.652Z,41.58
2022-12-29T22:46:54.108Z,40.53
2022-12-29T22:49:18.638Z,42.75
2022-12-29T22:51:44.344Z,41.00
2022-12-29T22:54:08.848Z,39.55
2022-12-29T22:56:33.709Z,41.17
2022-12-29T22:58:58.293Z,40.80
2022-12-29T23:01:23.258Z,39.33
2022-12-29T23:03:48.637Z,40.78
2022-12-29T23:06:16.089Z,39.50
2022-12-29T23:08:42.242Z,40.78
2022-12-29T23:11:08.464Z,41.42
2022-12-29T23:13:33.314Z,38.85
2022-12-29T23:15:57.768Z,41.00
2022-12-29T23:18:22.358Z,39.30
2022-12-29T23:20:49.025Z,38.78
2022-12-29T23:23:13.464Z,37.85
2022-12-29T23:25:39.946Z,38.85
2022-12-29T23:28:05.089Z,39.15
2022-12-29T23:30:29.472Z,40.33
2022-12-29T23:32:53.876Z,40.47
2022-12-29T23:35:18.385Z,40.13
2022-12-29T23:37:42.816Z,40.72
2022-12-29T23:40:08.538Z,39.08
2022-12-29T23:42:34.463Z,42.72
2022-12-29T23:44:58.927Z,41.55
2022-12-29T23:47:23.509Z,41.20
2022-12-29T23:49:47.906Z,43.30
2022-12-29T23:52:12.401Z,39.30
2022-12-29T23:54:36.920Z,40.13
2022-12-29T23:57:04.141Z,41.05
2022-12-29T23:59:30.395Z,40.00
